createdAt,value
2022-09-05T00:00:24.822Z,17.70
2022-09-05T00:06:25.551Z,17.68
2022-09-05T00:11:44.523Z,17.53
2022-09-05T00:17:06.403Z,17.09
2022-09-05T00:24:34.561Z,16.18
2022-09-05T00:28:25.180Z,16.24
2022-09-05T00:33:46.790Z,16.13
2022-09-05T00:39:15.308Z,16.86
2022-09-05T00:44:27.943Z,16.92
2022-09-05T00:49:46.643Z,16.70
2022-09-05T00:55:15.481Z,17.06
2022-09-05T01:00:19.334Z,17.35
2022-09-05T01:05:44.629Z,17.47
2022-09-05T01:11:05.403Z,17.24
2022-09-05T01:16:30.413Z,17.47
2022-09-05T01:21:54.825Z,16.92
2022-09-05T01:27:01.402Z,17.13
2022-09-05T01:32:17.121Z,17.08
2022-09-05T01:37:42.746Z,17.12
2022-09-05T01:43:02.322Z,17.11
2022-09-05T01:48:14.672Z,16.92
2022-09-05T01:53:26.664Z,16.90
2022-09-05T01:58:49.535Z,16.42
2022-09-05T02:04:30.221Z,16.65
2022-09-05T02:09:51.080Z,16.23
2022-09-05T02:15:08.203Z,15.42
2022-09-05T02:20:42.256Z,16.85
2022-09-05T02:26:04.291Z,16.84
2022-09-05T02:31:19.502Z,17.03
2022-09-05T02:36:37.751Z,16.91
2022-09-05T02:45:21.829Z,16.23
2022-09-05T02:47:44.299Z,17.10
2022-09-05T02:57:38.556Z,15.61
2022-09-05T02:58:42.754Z,16.90
2022-09-05T03:03:51.667Z,16.96
2022-09-05T03:09:16.911Z,16.81
2022-09-05T03:14:42.087Z,16.95
2022-09-05T03:20:12.373Z,15.33
2022-09-05T03:25:58.088Z,16.68
2022-09-05T03:31:35.410Z,16.83
2022-09-05T03:37:23.893Z,16.38
2022-09-05T03:42:52.784Z,16.39
2022-09-05T03:48:23.175Z,16.59
2022-09-05T03:57:19.058Z,16.71
2022-09-05T03:59:34.633Z,17.14
2022-09-05T04:08:17.688Z,16.38
2022-09-05T04:10:33.946Z,16.76
2022-09-05T04:15:59.864Z,16.73
2022-09-05T04:21:11.189Z,16.35
2022-09-05T04:26:55.162Z,16.69
2022-09-05T04:32:18.303Z,16.72
2022-09-05T04:37:48.416Z,16.80
2022-09-05T04:42:52.830Z,16.33
2022-09-05T04:48:00.773Z,14.91
2022-09-05T04:53:24.756Z,16.21
2022-09-05T05:00:58.951Z,16.32
2022-09-05T05:06:17.104Z,16.40
2022-09-05T05:09:51.613Z,16.54
2022-09-05T05:18:11.663Z,15.51
2022-09-05T05:21:02.318Z,15.57
2022-09-05T05:26:10.546Z,16.77
2022-09-05T05:32:03.316Z,17.09
2022-09-05T05:37:22.069Z,17.08
2022-09-05T05:42:28.306Z,16.70
2022-09-05T05:47:43.903Z,17.56
2022-09-05T05:53:05.201Z,17.63
2022-09-05T05:58:18.399Z,17.80
2022-09-05T06:03:57.610Z,18.16
2022-09-05T06:14:49.880Z,18.38
2022-09-05T06:15:10.190Z,18.62
2022-09-05T06:22:04.550Z,18.84
2022-09-05T06:26:20.109Z,19.23
2022-09-05T06:31:42.115Z,19.54
2022-09-05T06:37:05.480Z,19.66
2022-09-05T06:42:40.672Z,19.71
2022-09-05T06:47:45.659Z,19.88
2022-09-05T06:53:44.811Z,20.30
2022-09-05T06:59:21.412Z,20.75
2022-09-05T07:05:38.039Z,21.12
2022-09-05T07:10:38.464Z,21.34
2022-09-05T07:16:01.815Z,21.53
2022-09-05T07:21:17.802Z,22.33
2022-09-05T07:26:35.074Z,22.31
2022-09-05T07:31:55.322Z,22.87
2022-09-05T07:37:15.098Z,22.97
2022-09-05T07:42:34.432Z,22.90
2022-09-05T07:48:06.353Z,22.11
2022-09-05T07:57:03.979Z,22.08
2022-09-05T07:58:44.962Z,23.25
2022-09-05T08:03:56.304Z,23.85
2022-09-05T08:10:08.678Z,24.02
2022-09-05T08:14:46.122Z,25.20
2022-09-05T08:20:09.410Z,25.32
2022-09-05T08:25:42.865Z,25.78
2022-09-05T08:31:26.354Z,26.12
2022-09-05T08:36:47.070Z,25.99
2022-09-05T08:42:03.352Z,26.16
2022-09-05T10:01:36.078Z,28.15
2022-09-05T10:17:48.708Z,28.56
2022-09-05T10:51:40.099Z,28.65
2022-09-05T10:56:51.713Z,28.30
2022-09-05T11:06:40.385Z,28.10
2022-09-05T11:11:47.288Z,27.55
2022-09-05T11:16:55.979Z,26.50
2022-09-05T11:22:22.485Z,26.47
2022-09-05T11:27:35.608Z,26.78
2022-09-05T11:37:32.155Z,26.90
2022-09-05T11:40:05.247Z,27.43
2022-09-05T11:43:40.759Z,27.19
2022-09-05T11:49:09.298Z,27.48
2022-09-05T11:54:49.891Z,27.74
2022-09-05T12:00:33.170Z,25.55
2022-09-05T12:06:08.452Z,27.88
2022-09-05T12:11:30.519Z,28.41
2022-09-05T12:16:37.574Z,27.39
2022-09-05T12:27:46.059Z,28.46
2022-09-05T12:36:02.433Z,27.23
2022-09-05T12:41:35.631Z,28.41
2022-09-05T12:41:41.391Z,27.88
2022-09-05T12:44:44.179Z,27.48
2022-09-05T12:50:14.312Z,28.70
2022-09-05T12:55:26.854Z,28.66
2022-09-05T13:03:07.999Z,28.43
2022-09-05T13:06:19.489Z,27.06
2022-09-05T13:14:48.634Z,26.35
2022-09-05T13:16:58.842Z,27.35
2022-09-05T13:27:22.876Z,28.47
2022-09-05T13:38:06.055Z,28.29
2022-09-05T13:43:39.095Z,27.53
2022-09-05T13:49:30.410Z,27.72
2022-09-05T13:54:52.082Z,28.50
2022-09-05T14:00:08.218Z,28.56
2022-09-05T14:05:40.970Z,28.72
2022-09-05T14:11:15.156Z,27.53
2022-09-05T14:16:32.336Z,28.46
2022-09-05T14:21:40.012Z,27.58
2022-09-05T14:27:03.991Z,28.95
2022-09-05T14:37:35.357Z,28.77
2022-09-05T14:38:11.573Z,28.73
2022-09-05T14:43:27.525Z,28.56
2022-09-05T14:49:25.022Z,28.74
2022-09-05T15:02:38.684Z,28.35
2022-09-05T15:05:32.694Z,28.35
2022-09-05T15:12:17.473Z,27.29
2022-09-05T15:16:11.572Z,27.15
2022-09-05T15:21:33.678Z,28.25
2022-09-05T15:26:51.943Z,28.24
2022-09-05T15:32:19.107Z,27.92
2022-09-05T15:37:50.949Z,27.88
2022-09-05T15:43:03.037Z,27.79
2022-09-05T15:48:23.428Z,27.94
2022-09-05T15:53:35.472Z,27.07
2022-09-05T15:58:55.025Z,28.05
2022-09-05T16:08:56.800Z,26.71
2022-09-05T16:10:35.759Z,27.64
2022-09-05T16:17:44.761Z,27.60
2022-09-05T16:23:34.061Z,27.74
2022-09-05T16:26:34.693Z,26.91
2022-09-05T16:31:52.860Z,27.40
2022-09-05T16:37:08.653Z,27.28
2022-09-05T16:42:46.862Z,27.17
2022-09-05T16:48:25.251Z,27.46
2022-09-05T16:53:58.222Z,26.91
2022-09-05T16:59:12.819Z,27.52
2022-09-05T17:09:12.624Z,26.67
2022-09-05T17:14:23.961Z,25.91
2022-09-05T17:19:33.681Z,24.27
2022-09-05T17:29:27.751Z,24.71
2022-09-05T17:36:41.254Z,23.75
2022-09-05T17:41:51.728Z,23.33
2022-09-05T17:47:14.736Z,22.12
2022-09-05T17:52:21.705Z,21.46
2022-09-05T17:57:27.938Z,20.86
2022-09-05T18:02:34.259Z,19.97
2022-09-05T18:07:56.976Z,20.13
2022-09-05T18:13:31.791Z,20.92
2022-09-05T18:19:29.536Z,19.74
2022-09-05T18:24:04.978Z,19.84
2022-09-05T18:29:57.118Z,19.34
2022-09-05T18:35:16.570Z,18.15
2022-09-05T18:40:36.697Z,18.97
2022-09-05T18:45:52.817Z,18.75
2022-09-05T18:51:15.400Z,19.32
2022-09-05T18:56:39.424Z,19.06
2022-09-05T19:02:28.692Z,19.40
2022-09-05T19:07:49.807Z,19.29
2022-09-05T19:13:13.593Z,18.24
2022-09-05T19:18:27.198Z,18.11
2022-09-05T19:23:36.842Z,17.59
2022-09-05T19:32:37.480Z,17.00
2022-09-05T19:37:08.885Z,18.53
2022-09-05T19:43:48.374Z,17.90
2022-09-05T19:47:39.306Z,17.87
2022-09-05T19:50:50.776Z,18.04
2022-09-05T19:55:54.763Z,16.85
2022-09-05T20:01:06.045Z,17.56
2022-09-05T20:06:29.643Z,18.01
2022-09-05T20:11:45.364Z,18.02
2022-09-05T20:16:51.776Z,17.36
2022-09-05T20:21:57.148Z,16.71
2022-09-05T20:27:02.907Z,17.90
2022-09-05T20:32:07.564Z,16.52
2022-09-05T20:43:18.808Z,16.26
2022-09-05T20:43:20.808Z,16.38
2022-09-05T20:54:05.434Z,17.55
2022-09-05T20:54:32.155Z,16.04
2022-09-05T20:58:59.474Z,16.46
2022-09-05T21:04:06.019Z,16.92
2022-09-05T21:09:14.841Z,17.41
2022-09-05T21:14:22.835Z,16.65
2022-09-05T21:19:30.878Z,16.18
2022-09-05T21:24:34.610Z,16.94
2022-09-05T21:29:40.343Z,15.49
2022-09-05T21:34:53.691Z,16.87
2022-09-05T21:40:00.158Z,16.34
2022-09-05T21:47:46.668Z,16.78
2022-09-05T21:50:32.062Z,15.78
2022-09-05T21:59:21.157Z,15.47
2022-09-05T22:00:59.644Z,16.49
2022-09-05T22:06:07.154Z,16.33
2022-09-05T22:11:14.832Z,16.26
2022-09-05T22:16:18.448Z,16.11
2022-09-05T22:21:32.575Z,15.00
2022-09-05T22:27:06.220Z,15.68
2022-09-05T22:32:11.881Z,15.74
2022-09-05T22:37:17.700Z,14.82
2022-09-05T22:42:21.281Z,16.08
2022-09-05T22:47:25.208Z,15.69
2022-09-05T22:52:28.796Z,15.27
2022-09-05T22:57:32.197Z,14.81
2022-09-05T23:02:38.312Z,15.09
2022-09-05T23:07:41.708Z,15.89
2022-09-05T23:12:45.403Z,16.13
2022-09-05T23:17:56.008Z,14.39
2022-09-05T23:23:04.380Z,14.19
2022-09-05T23:28:09.665Z,15.42
2022-09-05T23:33:13.201Z,14.82
2022-09-05T23:38:17.896Z,14.84
2022-09-05T23:43:27.550Z,15.73
2022-09-05T23:48:31.666Z,14.23
2022-09-05T23:53:35.557Z,15.58
2022-09-05T23:58:39.549Z,14.99
